createdAt,value
2022-07-26T00:00:30.533Z,100.00
2022-07-26T00:01:32.918Z,100.00
2022-07-26T00:02:37.935Z,100.00
2022-07-26T00:03:40.284Z,100.00
2022-07-26T00:04:42.618Z,100.00
2022-07-26T00:05:44.877Z,100.00
2022-07-26T00:06:47.283Z,100.00
2022-07-26T00:07:49.833Z,100.00
2022-07-26T00:08:52.555Z,100.00
2022-07-26T00:09:54.930Z,100.00
2022-07-26T00:10:57.145Z,100.00
2022-07-26T00:11:59.720Z,100.00
2022-07-26T00:13:02.269Z,100.00
2022-07-26T00:14:07.186Z,100.00
2022-07-26T00:15:11.153Z,100.00
2022-07-26T00:16:13.852Z,100.00
2022-07-26T00:17:16.333Z,100.00
2022-07-26T00:18:18.826Z,100.00
2022-07-26T00:19:21.286Z,100.00
2022-07-26T00:20:23.569Z,100.00
2022-07-26T00:21:30.797Z,100.00
2022-07-26T00:22:35.806Z,100.00
2022-07-26T00:23:38.211Z,100.00
2022-07-26T00:24:40.860Z,100.00
2022-07-26T00:25:43.094Z,100.00
2022-07-26T00:26:45.469Z,100.00
2022-07-26T00:27:47.787Z,100.00
2022-07-26T00:28:50.038Z,100.00
2022-07-26T00:29:52.358Z,100.00
2022-07-26T00:30:54.628Z,100.00
2022-07-26T00:31:57.107Z,100.00
2022-07-26T00:32:59.495Z,100.00
2022-07-26T00:34:01.790Z,100.00
2022-07-26T00:35:04.712Z,100.00
2022-07-26T00:36:08.178Z,100.00
2022-07-26T00:37:10.425Z,100.00
2022-07-26T00:38:12.693Z,100.00
2022-07-26T00:39:14.956Z,100.00
2022-07-26T00:40:17.687Z,100.00
2022-07-26T00:41:19.911Z,100.00
2022-07-26T00:42:22.183Z,100.00
2022-07-26T00:43:24.481Z,100.00
2022-07-26T00:44:37.141Z,100.00
2022-07-26T00:45:39.439Z,100.00
2022-07-26T00:46:43.220Z,100.00
2022-07-26T00:47:45.776Z,100.00
2022-07-26T00:48:48.265Z,100.00
2022-07-26T00:49:50.818Z,100.00
2022-07-26T00:50:54.478Z,100.00
2022-07-26T00:51:56.860Z,100.00
2022-07-26T00:52:59.250Z,100.00
2022-07-26T00:54:01.693Z,100.00
2022-07-26T00:55:07.620Z,100.00
2022-07-26T00:56:10.103Z,100.00
2022-07-26T00:57:13.782Z,100.00
2022-07-26T00:58:18.293Z,100.00
2022-07-26T00:59:20.589Z,100.00
2022-07-26T01:00:27.734Z,100.00
2022-07-26T01:01:30.122Z,100.00
2022-07-26T01:02:32.554Z,100.00
2022-07-26T01:03:36.640Z,100.00
2022-07-26T01:04:44.393Z,100.00
2022-07-26T01:05:46.699Z,100.00
2022-07-26T01:06:49.678Z,100.00
2022-07-26T01:07:53.337Z,100.00
2022-07-26T01:08:55.999Z,100.00
2022-07-26T01:09:58.259Z,100.00
2022-07-26T01:11:00.605Z,100.00
2022-07-26T01:12:03.006Z,100.00
2022-07-26T01:13:06.101Z,100.00
2022-07-26T01:14:08.639Z,100.00
2022-07-26T01:15:13.194Z,100.00
2022-07-26T01:16:16.137Z,100.00
2022-07-26T01:17:18.471Z,100.00
2022-07-26T01:18:20.776Z,100.00
2022-07-26T01:19:23.239Z,100.00
2022-07-26T01:20:25.565Z,100.00
2022-07-26T01:21:32.316Z,100.00
2022-07-26T01:22:34.794Z,100.00
2022-07-26T01:23:38.627Z,100.00
2022-07-26T01:24:40.934Z,100.00
2022-07-26T01:25:45.982Z,100.00
2022-07-26T01:26:51.000Z,100.00
2022-07-26T01:27:53.602Z,100.00
2022-07-26T01:28:55.970Z,100.00
2022-07-26T01:29:58.272Z,100.00
2022-07-26T01:31:00.579Z,100.00
2022-07-26T01:32:04.800Z,100.00
2022-07-26T01:33:07.090Z,100.00
2022-07-26T01:34:09.723Z,100.00
2022-07-26T01:35:12.174Z,100.00
2022-07-26T01:36:14.539Z,100.00
2022-07-26T01:37:16.782Z,100.00
2022-07-26T01:38:18.986Z,100.00
2022-07-26T01:39:21.216Z,100.00
2022-07-26T01:40:23.515Z,100.00
2022-07-26T01:41:37.322Z,100.00
2022-07-26T01:42:41.122Z,100.00
2022-07-26T01:43:43.485Z,100.00
2022-07-26T01:44:45.726Z,100.00
2022-07-26T01:45:48.078Z,100.00
2022-07-26T01:46:50.709Z,100.00
2022-07-26T01:47:53.055Z,100.00
2022-07-26T01:48:55.793Z,100.00
2022-07-26T01:49:58.044Z,100.00
2022-07-26T01:51:00.858Z,100.00
2022-07-26T01:52:03.286Z,100.00
2022-07-26T01:53:06.087Z,100.00
2022-07-26T01:54:09.348Z,100.00
2022-07-26T01:55:12.016Z,100.00
2022-07-26T01:56:14.766Z,100.00
2022-07-26T01:57:17.041Z,100.00
2022-07-26T01:58:19.538Z,100.00
2022-07-26T01:59:21.855Z,100.00
2022-07-26T02:00:24.144Z,100.00
2022-07-26T02:01:38.435Z,100.00
2022-07-26T02:02:42.219Z,100.00
2022-07-26T02:03:44.674Z,100.00
2022-07-26T02:04:59.362Z,100.00
2022-07-26T02:06:02.344Z,100.00
2022-07-26T02:07:05.591Z,100.00
2022-07-26T02:08:15.188Z,100.00
2022-07-26T02:09:17.460Z,100.00
2022-07-26T02:10:21.425Z,100.00
2022-07-26T02:11:24.202Z,100.00
2022-07-26T02:12:26.653Z,100.00
2022-07-26T02:13:29.721Z,100.00
2022-07-26T02:14:32.009Z,100.00
2022-07-26T02:15:34.326Z,100.00
2022-07-26T02:16:36.955Z,100.00
2022-07-26T02:17:39.253Z,100.00
2022-07-26T02:18:42.866Z,100.00
2022-07-26T02:19:45.276Z,100.00
2022-07-26T02:20:47.498Z,100.00
2022-07-26T02:21:49.744Z,100.00
2022-07-26T02:22:52.064Z,100.00
2022-07-26T02:23:54.289Z,100.00
2022-07-26T02:24:58.496Z,100.00
2022-07-26T02:26:02.877Z,100.00
2022-07-26T02:27:05.656Z,100.00
2022-07-26T02:28:08.043Z,100.00
2022-07-26T02:29:10.358Z,100.00
2022-07-26T02:30:13.529Z,100.00
2022-07-26T02:31:15.870Z,100.00
2022-07-26T02:32:18.241Z,100.00
2022-07-26T02:33:20.564Z,100.00
2022-07-26T02:34:23.306Z,100.00
2022-07-26T02:35:25.630Z,100.00
2022-07-26T02:36:27.905Z,100.00
2022-07-26T02:37:30.430Z,100.00
2022-07-26T02:38:38.947Z,100.00
2022-07-26T02:39:41.214Z,100.00
2022-07-26T02:40:43.843Z,100.00
2022-07-26T02:41:46.785Z,100.00
2022-07-26T02:42:49.031Z,100.00
2022-07-26T02:43:51.369Z,100.00
2022-07-26T02:44:54.061Z,100.00
2022-07-26T02:46:01.881Z,100.00
2022-07-26T02:47:06.199Z,100.00
2022-07-26T02:48:08.518Z,100.00
2022-07-26T02:49:10.875Z,100.00
2022-07-26T02:50:16.743Z,100.00
2022-07-26T02:51:18.962Z,100.00
2022-07-26T02:52:21.304Z,100.00
2022-07-26T02:53:23.602Z,100.00
2022-07-26T02:54:25.942Z,100.00
2022-07-26T02:55:28.346Z,100.00
2022-07-26T02:56:30.650Z,100.00
2022-07-26T02:57:45.468Z,100.00
2022-07-26T02:58:49.132Z,100.00
2022-07-26T02:59:52.168Z,100.00
2022-07-26T03:00:54.595Z,100.00
2022-07-26T03:01:56.998Z,100.00
2022-07-26T03:03:00.868Z,100.00
2022-07-26T03:04:03.598Z,100.00
2022-07-26T03:05:06.843Z,100.00
2022-07-26T03:06:09.114Z,100.00
2022-07-26T03:07:11.375Z,100.00
2022-07-26T03:08:13.613Z,100.00
2022-07-26T03:09:15.986Z,100.00
2022-07-26T03:10:18.483Z,100.00
2022-07-26T03:11:20.826Z,100.00
2022-07-26T03:12:23.112Z,100.00
2022-07-26T03:13:25.388Z,100.00
2022-07-26T03:14:27.633Z,100.00
2022-07-26T03:15:32.885Z,100.00
2022-07-26T03:16:35.305Z,100.00
2022-07-26T03:17:37.674Z,100.00
2022-07-26T03:18:40.026Z,100.00
2022-07-26T03:19:42.437Z,100.00
2022-07-26T03:20:44.732Z,100.00
2022-07-26T03:21:46.942Z,100.00
2022-07-26T03:22:49.155Z,100.00
2022-07-26T03:23:51.406Z,100.00
2022-07-26T03:24:53.692Z,100.00
2022-07-26T03:25:56.021Z,100.00
2022-07-26T03:26:58.361Z,100.00
2022-07-26T03:28:00.661Z,100.00
2022-07-26T03:29:03.093Z,100.00
2022-07-26T03:30:06.389Z,100.00
2022-07-26T03:31:09.113Z,100.00
2022-07-26T03:32:11.387Z,100.00
2022-07-26T03:33:13.613Z,100.00
2022-07-26T03:34:15.827Z,100.00
2022-07-26T03:35:18.084Z,100.00
2022-07-26T03:36:20.410Z,100.00
2022-07-26T03:37:23.350Z,100.00
2022-07-26T03:38:26.432Z,100.00
2022-07-26T03:39:28.883Z,100.00
2022-07-26T03:40:31.126Z,100.00
2022-07-26T03:41:34.515Z,100.00
2022-07-26T03:42:36.983Z,100.00
2022-07-26T03:43:39.212Z,100.00
2022-07-26T03:44:41.788Z,100.00
2022-07-26T03:45:44.187Z,100.00
2022-07-26T03:46:49.095Z,100.00
2022-07-26T03:47:53.350Z,100.00
2022-07-26T03:48:55.836Z,100.00
2022-07-26T03:49:58.152Z,100.00
2022-07-26T03:51:00.640Z,100.00
2022-07-26T03:52:03.267Z,100.00
2022-07-26T03:53:05.596Z,100.00
2022-07-26T03:54:08.075Z,100.00
2022-07-26T03:55:29.279Z,100.00
2022-07-26T03:56:32.045Z,100.00
2022-07-26T03:57:34.520Z,100.00
2022-07-26T03:58:36.838Z,100.00
2022-07-26T03:59:39.649Z,100.00
2022-07-26T04:00:42.010Z,100.00
2022-07-26T04:01:45.578Z,100.00
2022-07-26T04:02:48.111Z,100.00
2022-07-26T04:03:50.443Z,100.00
2022-07-26T04:04:52.754Z,100.00
2022-07-26T04:05:55.120Z,100.00
2022-07-26T04:06:58.380Z,100.00
2022-07-26T04:08:20.850Z,100.00
2022-07-26T04:09:23.876Z,100.00
2022-07-26T04:10:26.319Z,100.00
2022-07-26T04:11:28.867Z,100.00
2022-07-26T04:12:31.215Z,100.00
2022-07-26T04:13:35.241Z,100.00
2022-07-26T04:14:38.496Z,100.00
2022-07-26T04:15:40.898Z,100.00
2022-07-26T04:16:43.989Z,100.00
2022-07-26T04:17:48.281Z,100.00
2022-07-26T04:18:50.974Z,100.00
2022-07-26T04:19:53.229Z,100.00
2022-07-26T04:20:55.577Z,100.00
2022-07-26T04:21:57.786Z,100.00
2022-07-26T04:23:00.097Z,100.00
2022-07-26T04:24:02.427Z,100.00
2022-07-26T04:25:06.069Z,100.00
2022-07-26T04:26:08.485Z,100.00
2022-07-26T04:27:10.760Z,100.00
2022-07-26T04:28:13.124Z,100.00
2022-07-26T04:29:15.779Z,100.00
2022-07-26T04:30:18.134Z,100.00
2022-07-26T04:31:20.614Z,100.00
2022-07-26T04:32:22.931Z,100.00
2022-07-26T04:33:25.812Z,100.00
2022-07-26T04:34:28.094Z,100.00
2022-07-26T04:35:30.398Z,100.00
2022-07-26T04:36:32.932Z,100.00
2022-07-26T04:37:42.746Z,100.00
2022-07-26T04:38:45.117Z,100.00
2022-07-26T04:39:51.659Z,100.00
2022-07-26T04:40:57.932Z,100.00
2022-07-26T04:42:00.198Z,100.00
2022-07-26T04:43:02.569Z,100.00
2022-07-26T04:44:05.517Z,99.81
2022-07-26T04:45:08.908Z,93.69
2022-07-26T04:46:11.247Z,90.89
2022-07-26T04:47:13.593Z,88.54
2022-07-26T04:48:16.562Z,84.94
2022-07-26T04:49:18.918Z,80.00
2022-07-26T04:50:22.660Z,74.51
2022-07-26T04:51:26.417Z,67.98
2022-07-26T04:52:29.337Z,62.10
2022-07-26T04:53:31.967Z,68.42
2022-07-26T04:54:34.386Z,73.68
2022-07-26T04:55:40.378Z,71.46
2022-07-26T04:56:42.610Z,66.63
2022-07-26T04:57:47.460Z,61.88
2022-07-26T04:58:50.108Z,60.86
2022-07-26T05:00:03.651Z,61.37
2022-07-26T05:01:15.110Z,60.90
2022-07-26T05:02:18.372Z,61.16
2022-07-26T05:03:22.058Z,64.60
2022-07-26T05:04:24.733Z,60.05
2022-07-26T05:05:29.943Z,57.30
2022-07-26T05:06:32.367Z,56.98
2022-07-26T05:07:45.490Z,53.31
2022-07-26T05:08:47.742Z,49.85
2022-07-26T05:09:50.044Z,49.74
2022-07-26T05:10:55.502Z,52.41
2022-07-26T05:11:58.374Z,58.19
2022-07-26T05:13:01.378Z,56.86
2022-07-26T05:14:03.699Z,68.70
2022-07-26T05:15:07.046Z,88.96
2022-07-26T05:16:16.845Z,96.03
2022-07-26T05:17:19.511Z,83.74
2022-07-26T05:18:23.369Z,93.39
2022-07-26T05:19:25.981Z,100.00
2022-07-26T05:20:28.515Z,100.00
2022-07-26T05:21:30.897Z,100.00
2022-07-26T05:22:34.453Z,100.00
2022-07-26T05:23:36.717Z,100.00
2022-07-26T05:24:39.016Z,90.66
2022-07-26T05:25:41.467Z,83.25
2022-07-26T05:26:43.759Z,84.67
2022-07-26T05:27:46.087Z,88.57
2022-07-26T05:28:48.416Z,96.26
2022-07-26T05:29:50.926Z,100.00
2022-07-26T05:30:53.212Z,87.30
2022-07-26T05:31:55.605Z,82.11
2022-07-26T05:32:57.858Z,76.73
2022-07-26T05:34:00.371Z,67.24
2022-07-26T05:35:02.697Z,64.56
2022-07-26T05:36:05.254Z,62.13
2022-07-26T05:37:07.798Z,58.72
2022-07-26T05:38:10.025Z,57.23
2022-07-26T05:39:15.866Z,56.74
2022-07-26T05:40:18.437Z,56.10
2022-07-26T05:41:20.769Z,58.77
2022-07-26T05:42:23.111Z,64.36
2022-07-26T05:43:27.658Z,66.90
2022-07-26T05:44:44.578Z,66.23
2022-07-26T05:45:47.738Z,58.63
2022-07-26T05:46:51.013Z,59.94
2022-07-26T05:47:53.547Z,56.76
2022-07-26T05:48:59.566Z,52.53
2022-07-26T05:50:02.404Z,47.89
2022-07-26T05:51:05.598Z,52.45
2022-07-26T05:52:09.447Z,51.92
2022-07-26T05:53:11.837Z,50.89
2022-07-26T05:54:14.303Z,61.33
2022-07-26T05:55:16.583Z,75.11
2022-07-26T05:56:20.483Z,91.99
2022-07-26T05:57:22.907Z,100.00
2022-07-26T05:58:25.447Z,100.00
2022-07-26T05:59:28.144Z,94.16
2022-07-26T06:00:30.546Z,89.97
2022-07-26T06:01:34.332Z,92.20
2022-07-26T06:02:36.747Z,83.55
2022-07-26T06:03:39.498Z,73.16
2022-07-26T06:04:42.014Z,62.19
2022-07-26T06:05:44.466Z,51.54
2022-07-26T06:06:46.870Z,48.81
2022-07-26T06:07:49.332Z,47.32
2022-07-26T06:08:51.869Z,47.53
2022-07-26T06:09:54.337Z,48.53
2022-07-26T06:10:56.868Z,46.35
2022-07-26T06:11:59.696Z,44.40
2022-07-26T06:13:02.758Z,44.32
2022-07-26T06:14:05.345Z,40.83
2022-07-26T06:15:15.267Z,37.88
2022-07-26T06:16:18.281Z,43.41
2022-07-26T06:17:20.817Z,41.41
2022-07-26T06:18:23.330Z,40.60
2022-07-26T06:19:25.855Z,37.46
2022-07-26T06:20:28.295Z,36.02
2022-07-26T06:21:30.664Z,36.47
2022-07-26T06:22:33.033Z,38.49
2022-07-26T06:23:35.401Z,37.35
2022-07-26T06:24:37.764Z,41.82
2022-07-26T06:25:40.710Z,44.24
2022-07-26T06:26:43.123Z,43.16
2022-07-26T06:27:45.576Z,40.56
2022-07-26T06:28:50.348Z,41.70
2022-07-26T06:29:53.256Z,41.55
2022-07-26T06:30:55.692Z,42.07
2022-07-26T06:31:58.044Z,39.48
2022-07-26T06:33:00.740Z,40.04
2022-07-26T06:34:03.361Z,39.63
2022-07-26T06:35:05.989Z,40.93
2022-07-26T06:36:08.948Z,47.27
2022-07-26T06:37:11.379Z,47.01
2022-07-26T06:38:13.773Z,46.28
2022-07-26T06:39:16.086Z,43.40
2022-07-26T06:40:18.406Z,41.73
2022-07-26T06:41:20.735Z,39.61
2022-07-26T06:42:23.017Z,40.95
2022-07-26T06:43:25.718Z,48.42
2022-07-26T06:44:28.071Z,55.33
2022-07-26T06:45:30.579Z,60.40
2022-07-26T06:46:33.059Z,63.22
2022-07-26T06:47:35.544Z,70.76
2022-07-26T06:48:37.930Z,73.51
2022-07-26T06:49:41.760Z,57.95
2022-07-26T06:50:44.037Z,50.84
2022-07-26T06:51:46.409Z,51.07
2022-07-26T06:52:48.892Z,58.87
2022-07-26T06:53:51.770Z,64.27
2022-07-26T06:54:54.201Z,61.63
2022-07-26T06:55:56.520Z,54.10
2022-07-26T06:56:58.926Z,46.67
2022-07-26T06:58:01.347Z,46.78
2022-07-26T06:59:09.282Z,50.80
2022-07-26T07:00:12.557Z,46.17
2022-07-26T07:01:58.399Z,46.52
2022-07-26T07:02:38.050Z,42.05
2022-07-26T07:03:40.582Z,42.13
2022-07-26T07:04:43.295Z,46.60
2022-07-26T07:05:50.079Z,43.59
2022-07-26T07:06:52.807Z,46.81
2022-07-26T07:07:55.292Z,54.05
2022-07-26T07:08:57.618Z,51.50
2022-07-26T07:10:00.048Z,50.50
2022-07-26T07:11:02.380Z,56.66
2022-07-26T07:12:10.407Z,63.81
2022-07-26T07:13:13.108Z,72.96
2022-07-26T07:14:15.891Z,79.10
2022-07-26T07:15:18.246Z,90.13
2022-07-26T07:16:20.565Z,100.00
2022-07-26T07:17:22.937Z,100.00
2022-07-26T07:18:25.180Z,100.00
2022-07-26T07:19:27.814Z,100.00
2022-07-26T07:20:31.789Z,100.00
2022-07-26T07:21:34.086Z,100.00
2022-07-26T07:22:36.483Z,100.00
2022-07-26T07:23:38.964Z,100.00
2022-07-26T07:24:42.095Z,100.00
2022-07-26T07:25:44.847Z,100.00
2022-07-26T07:26:47.529Z,100.00
2022-07-26T07:27:49.940Z,100.00
2022-07-26T07:28:52.462Z,100.00
2022-07-26T07:29:56.626Z,100.00
2022-07-26T07:31:00.279Z,100.00
2022-07-26T07:32:03.370Z,100.00
2022-07-26T07:33:06.045Z,100.00
2022-07-26T07:34:08.720Z,100.00
2022-07-26T07:35:12.855Z,100.00
2022-07-26T07:36:15.553Z,100.00
2022-07-26T07:37:19.908Z,100.00
2022-07-26T07:38:22.864Z,100.00
2022-07-26T07:39:27.275Z,100.00
2022-07-26T07:40:37.453Z,100.00
2022-07-26T07:41:40.806Z,100.00
2022-07-26T07:42:43.284Z,100.00
2022-07-26T07:43:45.723Z,100.00
2022-07-26T07:44:50.026Z,100.00
2022-07-26T07:45:52.410Z,100.00
2022-07-26T07:46:54.825Z,100.00
2022-07-26T07:47:57.455Z,100.00
2022-07-26T07:49:00.174Z,100.00
2022-07-26T07:50:02.741Z,100.00
2022-07-26T07:51:05.184Z,100.00
2022-07-26T07:52:07.797Z,100.00
2022-07-26T07:53:10.505Z,100.00
2022-07-26T07:54:15.909Z,98.95
2022-07-26T07:55:39.963Z,98.46
2022-07-26T07:56:41.833Z,94.96
2022-07-26T07:57:45.971Z,97.59
2022-07-26T07:58:50.441Z,94.78
2022-07-26T07:59:54.710Z,94.43
2022-07-26T08:00:57.151Z,92.23
2022-07-26T08:01:59.864Z,92.41
2022-07-26T08:03:02.211Z,94.43
2022-07-26T08:04:05.235Z,96.83
2022-07-26T08:05:14.255Z,98.06
2022-07-26T08:06:19.067Z,98.16
2022-07-26T08:07:22.070Z,97.40
2022-07-26T08:08:25.467Z,95.15
2022-07-26T08:09:28.937Z,92.88
2022-07-26T08:10:32.675Z,93.18
2022-07-26T08:11:35.530Z,90.23
2022-07-26T08:12:39.279Z,93.14
2022-07-26T08:13:47.955Z,90.14
2022-07-26T08:14:51.041Z,88.94
2022-07-26T08:15:54.807Z,92.04
2022-07-26T08:16:58.406Z,93.35
2022-07-26T08:18:00.816Z,91.28
2022-07-26T08:19:03.711Z,95.04
2022-07-26T08:20:06.971Z,94.70
2022-07-26T08:21:11.886Z,90.53
2022-07-26T08:22:16.766Z,88.75
2022-07-26T08:23:21.084Z,91.64
2022-07-26T08:24:27.406Z,91.00
2022-07-26T08:25:30.414Z,87.40
2022-07-26T08:26:32.734Z,90.48
2022-07-26T08:27:40.651Z,93.50
2022-07-26T08:28:48.074Z,89.37
2022-07-26T08:29:50.757Z,91.89
2022-07-26T08:30:52.971Z,91.28
2022-07-26T08:31:55.365Z,93.72
2022-07-26T08:32:57.794Z,99.68
2022-07-26T08:34:00.033Z,98.84
2022-07-26T08:35:19.556Z,97.81
2022-07-26T08:36:22.408Z,95.64
2022-07-26T08:37:24.922Z,93.56
2022-07-26T08:38:27.242Z,91.82
2022-07-26T08:39:29.723Z,90.32
2022-07-26T08:40:33.132Z,89.88
2022-07-26T08:41:36.399Z,88.55
2022-07-26T08:42:38.873Z,89.10
2022-07-26T08:43:51.967Z,89.30
2022-07-26T08:44:55.890Z,89.36
2022-07-26T08:46:02.215Z,92.13
2022-07-26T08:47:04.545Z,91.96
2022-07-26T08:48:21.457Z,96.49
2022-07-26T08:49:23.759Z,97.68
2022-07-26T08:50:28.499Z,98.80
2022-07-26T08:51:37.765Z,95.33
2022-07-26T08:52:41.859Z,96.69
2022-07-26T08:53:48.877Z,95.07
2022-07-26T08:54:52.840Z,91.03
2022-07-26T08:56:07.486Z,92.03
2022-07-26T08:57:10.796Z,88.77
2022-07-26T08:58:13.921Z,87.41
2022-07-26T08:59:22.161Z,83.31
2022-07-26T09:00:29.981Z,86.01
2022-07-26T09:01:33.224Z,90.21
2022-07-26T09:02:41.545Z,93.56
2022-07-26T09:03:45.729Z,93.98
2022-07-26T09:04:51.733Z,92.89
2022-07-26T09:06:14.750Z,88.36
2022-07-26T09:07:21.309Z,90.54
2022-07-26T09:08:27.153Z,90.71
2022-07-26T09:09:31.897Z,88.90
2022-07-26T09:10:38.977Z,86.22
2022-07-26T09:11:47.080Z,84.77
2022-07-26T09:12:58.356Z,84.98
2022-07-26T09:14:03.258Z,84.98
2022-07-26T09:15:08.826Z,86.09
2022-07-26T09:16:14.207Z,90.47
2022-07-26T09:17:19.031Z,91.56
2022-07-26T09:18:31.053Z,93.51
2022-07-26T09:19:35.635Z,95.50
2022-07-26T09:20:50.510Z,92.32
2022-07-26T09:21:55.607Z,89.83
2022-07-26T09:23:12.089Z,90.83
2022-07-26T09:24:34.546Z,85.97
2022-07-26T09:25:40.522Z,85.77
2022-07-26T09:26:57.839Z,84.56
2022-07-26T09:28:05.471Z,83.77
2022-07-26T09:29:13.340Z,83.49
2022-07-26T09:30:19.882Z,79.97
2022-07-26T09:31:24.018Z,77.64
2022-07-26T09:32:27.537Z,79.02
2022-07-26T09:33:47.600Z,81.73
2022-07-26T09:34:58.809Z,82.38
2022-07-26T09:36:09.950Z,81.96
2022-07-26T09:37:13.012Z,85.28
2022-07-26T09:38:16.609Z,84.64
2022-07-26T09:39:33.757Z,87.90
2022-07-26T09:40:37.141Z,87.68
2022-07-26T09:41:42.679Z,85.80
2022-07-26T09:43:00.438Z,82.07
2022-07-26T09:44:06.806Z,77.92
2022-07-26T09:45:16.673Z,77.65
2022-07-26T09:46:19.246Z,78.19
2022-07-26T09:47:21.785Z,77.57
2022-07-26T09:48:33.113Z,73.76
2022-07-26T09:49:43.499Z,75.94
2022-07-26T09:50:48.511Z,76.81
2022-07-26T09:51:53.003Z,78.67
2022-07-26T09:53:12.590Z,79.15
2022-07-26T09:54:32.364Z,77.67
2022-07-26T09:55:44.567Z,77.53
2022-07-26T09:56:52.319Z,79.32
2022-07-26T09:57:54.848Z,75.11
2022-07-26T09:58:57.257Z,70.41
2022-07-26T10:00:00.000Z,74.30
2022-07-26T10:01:02.757Z,72.62
2022-07-26T10:02:05.805Z,75.98
2022-07-26T10:03:08.312Z,72.84
2022-07-26T10:04:11.726Z,68.68
2022-07-26T10:05:14.254Z,68.89
2022-07-26T10:06:16.644Z,69.50
2022-07-26T10:07:18.934Z,68.58
2022-07-26T10:08:21.511Z,70.78
2022-07-26T10:09:25.357Z,70.63
2022-07-26T10:10:30.515Z,72.00
2022-07-26T10:11:41.425Z,69.06
2022-07-26T10:12:45.436Z,68.55
2022-07-26T10:13:47.674Z,70.45
2022-07-26T10:14:51.850Z,69.39
2022-07-26T10:15:56.658Z,67.63
2022-07-26T10:17:01.908Z,68.94
2022-07-26T10:18:06.568Z,70.38
2022-07-26T10:19:10.380Z,74.73
2022-07-26T10:20:41.690Z,76.38
2022-07-26T10:21:44.114Z,75.32
2022-07-26T10:22:48.881Z,72.90
2022-07-26T10:23:56.862Z,74.75
2022-07-26T10:25:19.237Z,73.66
2022-07-26T10:26:33.912Z,72.23
2022-07-26T10:27:40.790Z,72.81
2022-07-26T10:28:43.067Z,70.24
2022-07-26T10:29:45.367Z,70.64
2022-07-26T10:30:47.595Z,71.31
2022-07-26T10:32:14.183Z,65.14
2022-07-26T10:33:17.841Z,64.64
2022-07-26T10:34:32.024Z,65.00
2022-07-26T10:35:34.250Z,62.14
2022-07-26T10:36:39.112Z,66.98
2022-07-26T10:37:58.738Z,66.55
2022-07-26T10:39:16.404Z,63.12
2022-07-26T10:40:22.426Z,62.11
2022-07-26T10:41:37.101Z,62.17
2022-07-26T10:42:48.229Z,61.30
2022-07-26T10:44:15.380Z,63.11
2022-07-26T10:45:20.813Z,65.53
2022-07-26T10:46:25.076Z,63.87
2022-07-26T10:47:30.857Z,60.53
2022-07-26T10:48:57.633Z,56.77
2022-07-26T10:49:59.975Z,59.09
2022-07-26T10:51:26.382Z,60.48
2022-07-26T10:52:31.833Z,60.73
2022-07-26T10:53:34.322Z,63.37
2022-07-26T10:54:56.430Z,59.74
2022-07-26T10:56:01.402Z,61.12
2022-07-26T10:57:03.825Z,60.11
2022-07-26T10:58:06.268Z,59.10
2022-07-26T10:59:08.563Z,56.84
2022-07-26T11:00:19.495Z,57.80
2022-07-26T11:01:21.915Z,59.18
2022-07-26T11:02:27.842Z,59.65
2022-07-26T11:03:40.804Z,56.43
2022-07-26T11:04:43.094Z,55.68
2022-07-26T11:05:45.381Z,55.81
2022-07-26T11:06:53.220Z,54.22
2022-07-26T11:07:58.781Z,58.66
2022-07-26T11:09:10.189Z,60.64
2022-07-26T11:10:12.443Z,57.29
2022-07-26T11:11:27.674Z,57.76
2022-07-26T11:12:29.952Z,56.44
2022-07-26T11:13:33.669Z,54.41
2022-07-26T11:14:35.975Z,48.96
2022-07-26T11:15:41.783Z,46.91
2022-07-26T11:16:46.569Z,46.74
2022-07-26T11:17:49.860Z,47.04
2022-07-26T11:18:53.035Z,49.75
2022-07-26T11:19:57.258Z,49.32
2022-07-26T11:21:16.765Z,49.42
2022-07-26T11:22:21.951Z,52.29
2022-07-26T11:23:33.184Z,50.90
2022-07-26T11:24:40.675Z,54.08
2022-07-26T11:25:42.927Z,53.00
2022-07-26T11:26:46.896Z,55.96
2022-07-26T11:28:02.302Z,54.09
2022-07-26T11:29:09.751Z,52.15
2022-07-26T11:30:19.634Z,53.55
2022-07-26T11:31:51.389Z,54.04
2022-07-26T11:32:59.898Z,53.63
2022-07-26T11:34:03.647Z,51.74
2022-07-26T11:35:06.681Z,50.55
2022-07-26T11:36:09.688Z,46.60
2022-07-26T11:37:12.354Z,45.60
2022-07-26T11:38:14.938Z,45.40
2022-07-26T11:39:30.837Z,43.67
2022-07-26T11:40:47.183Z,42.97
2022-07-26T11:41:49.970Z,44.34
2022-07-26T11:42:55.056Z,47.47
2022-07-26T11:44:02.207Z,49.92
2022-07-26T11:45:09.500Z,47.48
2022-07-26T11:46:11.899Z,46.22
2022-07-26T11:47:20.316Z,45.87
2022-07-26T11:48:22.693Z,45.50
2022-07-26T11:51:08.890Z,45.66
2022-07-26T11:52:12.112Z,48.13
2022-07-26T11:53:22.168Z,50.65
2022-07-26T11:54:28.492Z,48.98
2022-07-26T11:55:31.831Z,49.51
2022-07-26T11:56:38.181Z,49.43
2022-07-26T11:57:41.002Z,48.77
2022-07-26T11:58:46.600Z,51.67
2022-07-26T11:59:51.039Z,52.26
2022-07-26T12:00:53.474Z,52.68
2022-07-26T12:01:57.119Z,49.67
2022-07-26T12:02:59.532Z,46.62
2022-07-26T12:04:03.541Z,48.20
2022-07-26T12:05:21.075Z,45.92
2022-07-26T12:06:26.718Z,43.44
2022-07-26T12:07:29.167Z,41.93
2022-07-26T12:08:56.002Z,42.79
2022-07-26T12:10:01.469Z,44.11
2022-07-26T12:11:04.776Z,44.69
2022-07-26T12:12:19.901Z,43.84
2022-07-26T12:13:24.374Z,43.66
2022-07-26T12:14:31.593Z,43.83
2022-07-26T12:15:48.681Z,44.06
2022-07-26T12:16:51.496Z,43.77
2022-07-26T12:18:00.780Z,46.30
2022-07-26T12:19:08.732Z,46.34
2022-07-26T12:20:20.445Z,42.13
2022-07-26T12:21:40.307Z,42.58
2022-07-26T12:23:06.172Z,44.35
2022-07-26T12:24:14.278Z,46.38
2022-07-26T12:25:28.710Z,47.04
2022-07-26T12:26:31.433Z,46.55
2022-07-26T12:27:34.144Z,45.90
2022-07-26T12:28:42.913Z,44.89
2022-07-26T12:29:47.868Z,45.84
2022-07-26T12:30:50.375Z,44.24
2022-07-26T12:32:10.392Z,43.30
2022-07-26T12:33:14.733Z,43.50
2022-07-26T12:34:21.652Z,43.59
2022-07-26T12:35:33.573Z,44.01
2022-07-26T12:36:36.060Z,43.81
2022-07-26T12:37:51.401Z,43.08
2022-07-26T12:38:55.978Z,41.64
2022-07-26T12:40:16.191Z,40.27
2022-07-26T12:41:40.360Z,40.80
2022-07-26T12:42:58.627Z,37.14
2022-07-26T12:44:05.020Z,37.65
2022-07-26T12:45:12.983Z,39.54
2022-07-26T12:46:15.410Z,40.54
2022-07-26T12:47:17.836Z,39.51
2022-07-26T12:48:20.733Z,40.53
2022-07-26T12:49:23.124Z,41.44
2022-07-26T12:50:27.725Z,40.61
2022-07-26T12:51:30.175Z,42.78
2022-07-26T12:52:33.869Z,40.76
2022-07-26T12:53:36.492Z,40.00
2022-07-26T12:54:38.891Z,40.37
2022-07-26T12:55:41.313Z,40.25
2022-07-26T12:56:43.621Z,40.47
2022-07-26T12:57:49.532Z,42.28
2022-07-26T12:59:01.771Z,40.26
2022-07-26T13:00:06.461Z,40.30
2022-07-26T13:01:08.933Z,42.52
2022-07-26T13:02:11.816Z,39.84
2022-07-26T13:03:15.480Z,39.51
2022-07-26T13:04:17.947Z,38.82
2022-07-26T13:05:20.424Z,40.34
2022-07-26T13:06:22.875Z,41.04
2022-07-26T13:07:25.256Z,40.72
2022-07-26T13:08:27.607Z,39.89
2022-07-26T13:09:29.994Z,40.14
2022-07-26T13:10:34.555Z,40.12
2022-07-26T13:11:37.468Z,41.35
2022-07-26T13:12:40.845Z,39.47
2022-07-26T13:13:43.267Z,38.09
2022-07-26T13:14:45.896Z,38.44
2022-07-26T13:15:48.338Z,38.97
2022-07-26T13:16:50.919Z,40.56
2022-07-26T13:17:53.396Z,41.18
2022-07-26T13:18:57.295Z,40.96
2022-07-26T13:19:59.718Z,40.04
2022-07-26T13:21:02.189Z,39.69
2022-07-26T13:22:05.929Z,39.38
2022-07-26T13:23:11.674Z,40.42
2022-07-26T13:24:16.328Z,40.04
2022-07-26T13:25:20.464Z,41.08
2022-07-26T13:26:24.350Z,41.22
2022-07-26T13:27:27.156Z,41.87
2022-07-26T13:28:40.433Z,40.35
2022-07-26T13:29:42.779Z,35.55
2022-07-26T13:30:45.419Z,39.14
2022-07-26T13:31:47.989Z,39.56
2022-07-26T13:32:50.288Z,39.58
2022-07-26T13:33:52.568Z,37.80
2022-07-26T13:34:55.018Z,39.26
2022-07-26T13:35:57.300Z,40.96
2022-07-26T13:36:59.911Z,40.52
2022-07-26T13:38:02.246Z,39.82
2022-07-26T13:39:05.378Z,38.57
2022-07-26T13:40:08.204Z,37.42
2022-07-26T13:41:10.729Z,37.17
2022-07-26T13:42:13.401Z,36.69
2022-07-26T13:43:15.850Z,36.92
2022-07-26T13:44:18.212Z,37.07